tititudorancea.com
Station Historical Data
Daily Summary for December 6, 2018 Units:  Metric    English   Both
« Previous Day
Next Day »
Daily Weekly Monthly Yearly Custom
  High: Low: Average:
Temperature: -17.8 °C 10 °C 24.9 °C
Dew Point: -17.8 °C 2.8 °C 7.9 °C
Humidity: Humidity % 13 % 43 %
Wind Speed: 0 km/h 0 km/h 10.3 km/h
Wind Gust: 0 km/h - -
Wind:- - SW
Pressure: 0 hPa 1008.7 hPa -
Precipitation: 0 mm    
Historical Graphs
 
 
Ararat weather Find more about Weather in Ararat, AU


 



 


Tabular Data for December 6, 2018
Time Temperature Dew Point Pressure Wind Wind Speed Wind Gust Humidity Rainfall Rate (Hourly)
-17.8 °C -17.8 °C 0 hPa Calm     Humidity % 0 mm
00:04 16.9 °C 10.9 °C 1014.8 hPa Calm     68 % 0 mm
00:09 16.7 °C 10.8 °C 1014.8 hPa Calm     68 % 0 mm
00:14 16.4 °C 10.7 °C 1014.8 hPa Calm     69 % 0 mm
00:19 16.2 °C 10.7 °C 1014.8 hPa Calm     70 % 0 mm
00:24 16 °C 10.7 °C 1014.8 hPa Calm     71 % 0 mm
00:29 15.9 °C 10.6 °C 1014.8 hPa South 3.7 km/h 1.9 km/h 71 % 0 mm
00:34 15.9 °C 10.8 °C 1014.8 hPa Calm     72 % 0 mm
00:39 15.8 °C 10.8 °C 1014.4 hPa South 1.6 km/h 0.2 km/h 72 % 0 mm
00:44 15.8 °C 10.7 °C 1014.8 hPa Calm     72 % 0 mm
00:49 15.7 °C 10.8 °C 1014.8 hPa South 3.7 km/h 2.3 km/h 73 % 0 mm
00:54 15.6 °C 10.8 °C 1014.8 hPa South 3.7 km/h 0.8 km/h 73 % 0 mm
00:59 15.6 °C 10.5 °C 1014.4 hPa Calm     72 % 0 mm
01:04 15.4 °C 10.4 °C 1014.4 hPa Calm     72 % 0 mm
01:09 15.2 °C 10.2 °C 1014.4 hPa Calm     72 % 0 mm
01:14 15.1 °C 10.3 °C 1014.4 hPa Calm     73 % 0 mm
01:19 14.9 °C 10.2 °C 1014.4 hPa Calm     73 % 0 mm
01:24 14.8 °C 10.2 °C 1014.4 hPa Calm     74 % 0 mm
01:29 14.7 °C 10.1 °C 1014.4 hPa Calm     74 % 0 mm
01:34 14.5 °C 9.9 °C 1014.4 hPa Calm     74 % 0 mm
01:39 14.3 °C 9.7 °C 1014.4 hPa Calm     74 % 0 mm
01:44 14.1 °C 9.6 °C 1014.4 hPa Calm     74 % 0 mm
01:49 13.9 °C 9.6 °C 1014.4 hPa Calm     75 % 0 mm
01:54 13.7 °C 9.5 °C 1014.4 hPa Calm     76 % 0 mm
01:59 13.5 °C 9.6 °C 1014.1 hPa Calm     77 % 0 mm
02:04 13.3 °C 9.3 °C 1014.4 hPa Calm     77 % 0 mm
02:09 13.1 °C 9.3 °C 1014.1 hPa Calm     78 % 0 mm
02:14 12.9 °C 9.3 °C 1014.1 hPa Calm     79 % 0 mm
02:19 12.7 °C 9.3 °C 1014.1 hPa Calm     80 % 0 mm
02:24 12.6 °C 9.4 °C 1014.1 hPa Calm     81 % 0 mm
02:29 12.5 °C 9.3 °C 1014.1 hPa Calm     81 % 0 mm
02:34 12.4 °C 9.4 °C 1014.1 hPa Calm     82 % 0 mm
02:39 12.3 °C 9.5 °C 1013.8 hPa Calm     83 % 0 mm
02:44 12.3 °C 9.5 °C 1013.8 hPa Calm     83 % 0 mm
02:49 12.2 °C 9.4 °C 1013.8 hPa Calm     83 % 0 mm
02:54 12 °C 9.2 °C 1013.8 hPa Calm     83 % 0 mm
02:59 11.9 °C 9.3 °C 1013.8 hPa Calm     84 % 0 mm
03:04 11.8 °C 9.2 °C 1013.8 hPa Calm     84 % 0 mm
03:09 11.7 °C 9.3 °C 1013.8 hPa Calm     85 % 0 mm
03:14 11.7 °C 9.4 °C 1013.8 hPa Calm     86 % 0 mm
03:19 11.6 °C 9.3 °C 1013.8 hPa Calm     86 % 0 mm
03:24 11.6 °C 9.3 °C 1013.8 hPa Calm     86 % 0 mm
03:29 11.5 °C 9.4 °C 1013.8 hPa Calm     87 % 0 mm
03:34 11.4 °C 9.3 °C 1013.8 hPa Calm     87 % 0 mm
03:39 11.4 °C 9.3 °C 1013.8 hPa Calm     87 % 0 mm
03:44 11.4 °C 9.3 °C 1013.8 hPa Calm     87 % 0 mm
03:49 11.3 °C 9.2 °C 1013.8 hPa Calm     87 % 0 mm
03:54 11.3 °C 9.4 °C 1014.1 hPa Calm     88 % 0 mm
03:59 11.4 °C 9.7 °C 1013.8 hPa Calm     89 % 0 mm
04:04 11.4 °C 9.4 °C 1013.8 hPa Calm     88 % 0 mm
04:09 11.3 °C 9.4 °C 1013.8 hPa Calm     88 % 0 mm
04:14 11.2 °C 9.3 °C 1013.8 hPa Calm     88 % 0 mm
04:19 11.1 °C 9 °C 1013.8 hPa Calm     87 % 0 mm
04:24 10.9 °C 8.9 °C 1013.8 hPa Calm     87 % 0 mm
04:29 10.9 °C 9 °C 1013.8 hPa Calm     88 % 0 mm
04:34 10.8 °C 8.9 °C 1013.8 hPa Calm     88 % 0 mm
04:39 10.7 °C 8.6 °C 1014.1 hPa Calm     87 % 0 mm
04:44 10.6 °C 8.7 °C 1014.1 hPa Calm     88 % 0 mm
04:49 10.6 °C 8.7 °C 1014.1 hPa Calm     88 % 0 mm
04:54 10.6 °C 8.7 °C 1014.1 hPa Calm     88 % 0 mm
04:59 10.6 °C 8.8 °C 1013.8 hPa Calm     89 % 0 mm
05:04 10.4 °C 8.6 °C 1014.1 hPa Calm     88 % 0 mm
05:09 10.3 °C 8.4 °C 1014.1 hPa Calm     88 % 0 mm
05:14 10.2 °C 8.3 °C 1014.1 hPa Calm     88 % 0 mm
05:19 10.2 °C 8.4 °C 1014.1 hPa Calm     89 % 0 mm
05:24 10.1 °C 8.4 °C 1014.1 hPa Calm     89 % 0 mm
05:29 10.1 °C 8.4 °C 1014.1 hPa Calm     89 % 0 mm
05:34 10.1 °C 8.3 °C 1014.1 hPa Calm     89 % 0 mm
05:39 10 °C 8.3 °C 1014.1 hPa Calm     89 % 0 mm
05:44 10 °C 8.3 °C 1014.1 hPa Calm     89 % 0 mm
05:49 10.1 °C 8.6 °C 1014.1 hPa Calm     90 % 0 mm
05:54 10.3 °C 8.7 °C 1014.1 hPa Calm     90 % 0 mm
05:59 10.4 °C 8.8 °C 1014.1 hPa Calm     90 % 0 mm
06:04 10.5 °C 8.9 °C 1014.1 hPa Calm     90 % 0 mm
06:09 10.8 °C 9.2 °C 1014.4 hPa Calm     90 % 0 mm
06:14 11.1 °C 9.3 °C 1014.4 hPa Calm     89 % 0 mm
06:19 11.3 °C 9.4 °C 1014.1 hPa Calm     88 % 0 mm
06:24 11.5 °C 9.2 °C 1014.4 hPa Calm     86 % 0 mm
06:29 11.8 °C 9.5 °C 1014.4 hPa Calm     86 % 0 mm
06:34 12.1 °C 9.7 °C 1014.4 hPa Calm     85 % 0 mm
06:39 12.4 °C 9.8 °C 1014.4 hPa South 3.7 km/h 3.4 km/h 84 % 0 mm
06:44 12.9 °C 10.1 °C 1014.4 hPa South 3.7 km/h 3.2 km/h 83 % 0 mm
06:49 13.6 °C 10.3 °C 1014.4 hPa South 3.7 km/h 0.3 km/h 81 % 0 mm
06:54 14.3 °C 10.3 °C 1014.4 hPa South 7.4 km/h 6.8 km/h 77 % 0 mm
06:59 15.6 °C 10.2 °C 1014.8 hPa South 7.4 km/h 6 km/h 70 % 0 mm
07:04 17 °C 9.9 °C 1014.8 hPa South 7.4 km/h 3.7 km/h 63 % 0 mm
07:09 17.9 °C 9.8 °C 1014.8 hPa South 7.4 km/h 7.4 km/h 59 % 0 mm
07:14 18.4 °C 9.2 °C 1014.8 hPa South 8 km/h 7.9 km/h 55 % 0 mm
07:19 18.9 °C 9.1 °C 1014.8 hPa South 7.4 km/h 5.6 km/h 53 % 0 mm
07:24 19.4 °C 9.6 °C 1014.8 hPa South 5.6 km/h 3.5 km/h 53 % 0 mm
07:29 19.9 °C 10.3 °C 1014.4 hPa South 3.7 km/h 2.3 km/h 54 % 0 mm
07:34 20.3 °C 9.8 °C 1014.8 hPa South 7.4 km/h 6.4 km/h 51 % 0 mm
07:39 20.8 °C 9.4 °C 1014.8 hPa South 7.4 km/h 4.7 km/h 48 % 0 mm
07:44 21.3 °C 9.2 °C 1014.8 hPa South 7.4 km/h 4 km/h 46 % 0 mm
07:49 21.5 °C 9.4 °C 1014.8 hPa South 7.4 km/h 3.2 km/h 46 % 0 mm
07:54 21.7 °C 9.6 °C 1014.4 hPa South 9.7 km/h 3.5 km/h 46 % 0 mm
07:59 21.8 °C 9.7 °C 1014.8 hPa South 7.4 km/h 3.9 km/h 46 % 0 mm
08:04 22.1 °C 9.9 °C 1014.8 hPa South 5.6 km/h 4.5 km/h 46 % 0 mm
08:09 22.6 °C 10 °C 1014.8 hPa South 5.6 km/h 4.2 km/h 45 % 0 mm
08:14 23 °C 10.1 °C 1014.8 hPa South 7.4 km/h 5.3 km/h 44 % 0 mm
08:19 23.5 °C 10.2 °C 1014.8 hPa South 11.3 km/h 9.8 km/h 43 % 0 mm
08:24 23.9 °C 10.2 °C 1014.8 hPa South 11.3 km/h 9.5 km/h 42 % 0 mm
08:29 24.4 °C 10.3 °C 1014.8 hPa East 9.3 km/h 6.8 km/h 41 % 0 mm
08:34 24.8 °C 10.3 °C 1014.8 hPa ENE 16.7 km/h 8.5 km/h 40 % 0 mm
08:39 25.1 °C 10.6 °C 1014.8 hPa ENE 7.4 km/h 4 km/h 40 % 0 mm
08:44 25.5 °C 10.5 °C 1014.8 hPa ENE 9.7 km/h 7.4 km/h 39 % 0 mm
08:49 25.8 °C 10.4 °C 1014.8 hPa ENE 13 km/h 6.8 km/h 38 % 0 mm
08:54 26 °C 10.6 °C 1014.8 hPa ENE 9.3 km/h 8.5 km/h 38 % 0 mm
08:59 26.4 °C 10.9 °C 1014.8 hPa NE 12.9 km/h 9.5 km/h 38 % 0 mm
09:04 26.6 °C 10.7 °C 1014.8 hPa NNE 24.1 km/h 20 km/h 37 % 0 mm
09:09 26.6 °C 10.7 °C 1014.4 hPa NNE 18.5 km/h 9.7 km/h 37 % 0 mm
09:14 26.6 °C 10.7 °C 1014.4 hPa North 22.2 km/h 10 km/h 37 % 0 mm
09:19 26.8 °C 10.9 °C 1014.4 hPa NNE 18.5 km/h 12.4 km/h 37 % 0 mm
09:24 27 °C 10.7 °C 1014.4 hPa NNE 22.2 km/h 11.7 km/h 36 % 0 mm
09:29 27.3 °C 10.9 °C 1014.4 hPa NNE 18.5 km/h 13.7 km/h 36 % 0 mm
09:34 27.6 °C 10.7 °C 1014.1 hPa NNE 16.7 km/h 11.6 km/h 35 % 0 mm
09:39 27.9 °C 11.4 °C 1014.1 hPa NNE 20.9 km/h 11.4 km/h 36 % 0 mm
09:44 28.2 °C 10.8 °C 1014.1 hPa North 25.9 km/h 15.4 km/h 34 % 0 mm
09:49 28.3 °C 10.9 °C 1014.1 hPa NNE 20.4 km/h 10.3 km/h 34 % 0 mm
09:54 28.7 °C 11.3 °C 1014.1 hPa North 18.5 km/h 11.9 km/h 34 % 0 mm
09:59 28.9 °C 11 °C 1014.1 hPa NNW 19.3 km/h 15.6 km/h 33 % 0 mm
10:04 28.8 °C 11.4 °C 1014.1 hPa NNW 14.8 km/h 8.5 km/h 34 % 0 mm
10:09 29.3 °C 10.9 °C 1014.1 hPa NNE 30.6 km/h 19.3 km/h 32 % 0 mm
10:14 29.2 °C 10.8 °C 1014.1 hPa NNE 24.1 km/h 17.4 km/h 32 % 0 mm
10:19 29.2 °C 10.8 °C 1014.1 hPa North 18.5 km/h 14.5 km/h 32 % 0 mm
10:24 29.3 °C 10.9 °C 1014.1 hPa North 25.9 km/h 17.5 km/h 32 % 0 mm
10:29 29.6 °C 10.6 °C 1014.1 hPa NE 25.9 km/h 18.8 km/h 31 % 0 mm
10:34 29.6 °C 10.6 °C 1014.1 hPa North 20.4 km/h 15.8 km/h 31 % 0 mm
10:39 29.6 °C 10.7 °C 1014.1 hPa North 20.9 km/h 18.2 km/h 31 % 0 mm
10:44 29.7 °C 10.8 °C 1014.1 hPa NNE 20.4 km/h 11.9 km/h 31 % 0 mm
10:49 30 °C 10.6 °C 1014.1 hPa NNE 27.8 km/h 12.2 km/h 30 % 0 mm
10:54 30.2 °C 10.7 °C 1014.1 hPa North 19.3 km/h 11.9 km/h 30 % 0 mm
10:59 30.2 °C 10.7 °C 1013.8 hPa NNW 22.2 km/h 15 km/h 30 % 0 mm
11:04 30.2 °C 10.7 °C 1013.8 hPa NNW 16.7 km/h 13 km/h 30 % 0 mm
11:09 30.5 °C 10.4 °C 1013.8 hPa NW 20.4 km/h 13.8 km/h 29 % 0 mm
11:14 30.5 °C 10.9 °C 1013.8 hPa North 24.1 km/h 13.2 km/h 30 % 0 mm
11:19 30.6 °C 11.1 °C 1013.8 hPa North 24.1 km/h 16.7 km/h 30 % 0 mm
11:24 30.8 °C 10.7 °C 1013.8 hPa North 18.5 km/h 12.1 km/h 29 % 0 mm
11:29 31 °C 10.9 °C 1013.8 hPa NNE 29.6 km/h 11.1 km/h 29 % 0 mm
11:34 31.3 °C 10.1 °C 1013.8 hPa North 20.4 km/h 18.5 km/h 27 % 0 mm
11:39 31.2 °C 9.9 °C 1013.4 hPa NNW 16.7 km/h 11.9 km/h 27 % 0 mm
11:44 31.4 °C 10.2 °C 1013.4 hPa NNE 25.9 km/h 17.5 km/h 27 % 0 mm
11:49 31.5 °C 9.1 °C 1013.4 hPa North 25.9 km/h 15.3 km/h 25 % 0 mm
11:54 31.6 °C 9.8 °C 1013.4 hPa NNE 16.7 km/h 11.7 km/h 26 % 0 mm
11:59 31.7 °C 9.8 °C 1013.4 hPa NNE 22.2 km/h 14 km/h 26 % 0 mm
12:04 31.8 °C 9.4 °C 1013.4 hPa North 18.5 km/h 8.7 km/h 25 % 0 mm
12:09 32.3 °C 10.3 °C 1013.4 hPa NNW 20.4 km/h 10.9 km/h 26 % 0 mm
12:14 32.3 °C 10.3 °C 1013.1 hPa NNE 24.1 km/h 17.5 km/h 26 % 0 mm
12:19 32.1 °C 10.2 °C 1013.1 hPa North 24.1 km/h 17.5 km/h 26 % 0 mm
12:24 32.3 °C 9.8 °C 1013.1 hPa NNW 14.8 km/h 6.8 km/h 25 % 0 mm
12:29 32.7 °C 8.9 °C 1013.1 hPa NW 29.6 km/h 17.9 km/h 23 % 0 mm
12:34 32.2 °C 9.1 °C 1012.8 hPa NW 20.4 km/h 14 km/h 24 % 0 mm
12:39 32.4 °C 8.6 °C 1013.1 hPa NNW 22.5 km/h 14.2 km/h 23 % 0 mm
12:44 32.4 °C 8.6 °C 1013.1 hPa NNW 24.1 km/h 11.6 km/h 23 % 0 mm
12:49 32.4 °C 8 °C 1012.8 hPa NNW 14.8 km/h 12.6 km/h 22 % 0 mm
12:54 32.6 °C 8.1 °C 1012.8 hPa NNE 16.7 km/h 7.1 km/h 22 % 0 mm
12:59 32.9 °C 8.4 °C 1012.4 hPa NNE 25.9 km/h 17.7 km/h 22 % 0 mm
13:04 33.1 °C 8.5 °C 1012.4 hPa NNE 22.2 km/h 9 km/h 22 % 0 mm
13:09 32.9 °C 7.7 °C 1012.4 hPa North 9.3 km/h 6.9 km/h 21 % 0 mm
13:14 33.2 °C 7.9 °C 1012.4 hPa NNW 29.6 km/h 16.3 km/h 21 % 0 mm
13:19 33.3 °C 8.1 °C 1012.1 hPa NNW 24.1 km/h 7.4 km/h 21 % 0 mm
13:24 33.8 °C 8.4 °C 1012.1 hPa North 9.3 km/h 4.3 km/h 21 % 0 mm
13:29 34.1 °C 7.9 °C 1012.1 hPa North 16.1 km/h 11.7 km/h 20 % 0 mm
13:34 33.9 °C 7.8 °C 1012.1 hPa NNE 18.5 km/h 8 km/h 20 % 0 mm
13:39 34.1 °C 7.9 °C 1012.1 hPa North 19.3 km/h 17.4 km/h 20 % 0 mm
13:44 33.6 °C 6.8 °C 1011.7 hPa North 25.9 km/h 16.1 km/h 19 % 0 mm
13:49 33.7 °C 6.8 °C 1011.7 hPa North 25.9 km/h 19.8 km/h 19 % 0 mm
13:54 33.4 °C 7.4 °C 1011.7 hPa NNW 16.7 km/h 8.4 km/h 20 % 0 mm
13:59 33.7 °C 6.9 °C 1011.7 hPa NNE 22.2 km/h 17.5 km/h 19 % 0 mm
14:04 33.8 °C 7.7 °C 1011.4 hPa North 22.5 km/h 15.3 km/h 20 % 0 mm
14:09 34.1 °C 7.2 °C 1011.4 hPa NW 18.5 km/h 16.3 km/h 19 % 0 mm
14:14 34.1 °C 7.2 °C 1011.4 hPa NNW 16.7 km/h 11.9 km/h 19 % 0 mm
14:19 34.7 °C 6.9 °C 1011.4 hPa NNE 25.9 km/h 13 km/h 18 % 0 mm
14:24 34.7 °C 8.4 °C 1011.1 hPa NNE 11.3 km/h 9.5 km/h 20 % 0 mm
14:29 34.6 °C 6.8 °C 1011.1 hPa North 22.2 km/h 19.3 km/h 18 % 0 mm
14:34 34.4 °C 7.5 °C 1011.1 hPa North 18.5 km/h 7.7 km/h 19 % 0 mm
14:39 34.7 °C 7.7 °C 1010.7 hPa North 27.4 km/h 14.8 km/h 19 % 0 mm
14:44 34.7 °C 7.7 °C 1010.7 hPa North 31.5 km/h 15.8 km/h 19 % 0 mm
14:49 34.7 °C 7.7 °C 1010.7 hPa North 22.2 km/h 11.3 km/h 19 % 0 mm
14:54 34.8 °C 7.8 °C 1010.4 hPa NNE 22.2 km/h 13 km/h 19 % 0 mm
14:59 34.9 °C 7.1 °C 1010.4 hPa NW 18.5 km/h 7.4 km/h 18 % 0 mm
15:04 35.1 °C 6.3 °C 1010.4 hPa North 24.1 km/h 13.7 km/h 17 % 0 mm
15:09 35.1 °C 5.5 °C 1010.4 hPa NNW 30.6 km/h 24.6 km/h 16 % 0 mm
15:14 34.9 °C 6.3 °C 1010.4 hPa North 27.8 km/h 15.3 km/h 17 % 0 mm
15:19 35.2 °C 5.6 °C 1010.4 hPa NNE 9.7 km/h 8.5 km/h 16 % 0 mm
15:24 35.3 °C 6.6 °C 1010.4 hPa NNW 16.7 km/h 6.9 km/h 17 % 0 mm
15:29 35.6 °C 5.9 °C 1010.4 hPa NNW 20.4 km/h 12.9 km/h 16 % 0 mm
15:34 35.6 °C 5.9 °C 1010 hPa NNW 18.5 km/h 11.1 km/h 16 % 0 mm
15:39 35.3 °C 5.7 °C 1010 hPa NW 27.8 km/h 15.6 km/h 16 % 0 mm
15:44 35.2 °C 6.4 °C 1010 hPa North 16.7 km/h 8.4 km/h 17 % 0 mm
15:49 35.4 °C 6.6 °C 1010 hPa North 18.5 km/h 10.8 km/h 17 % 0 mm
15:54 35.3 °C 5.7 °C 1009.7 hPa North 25.9 km/h 12.9 km/h 16 % 0 mm
15:59 35.1 °C 6.3 °C 1009.7 hPa NNW 18.5 km/h 8.9 km/h 17 % 0 mm
16:04 35.3 °C 7.4 °C 1009.7 hPa NNE 17.7 km/h 10.5 km/h 18 % 0 mm
16:09 35.4 °C 4.8 °C 1009.7 hPa NNW 16.7 km/h 14 km/h 15 % 0 mm
16:14 35.3 °C 5.7 °C 1009.7 hPa North 22.2 km/h 13.4 km/h 16 % 0 mm
16:19 35.6 °C 5 °C 1009.7 hPa NNE 20.9 km/h 17.2 km/h 15 % 0 mm
16:24 35.6 °C 5 °C 1009.4 hPa NNW 18.5 km/h 9 km/h 15 % 0 mm
16:29 35.4 °C 4.8 °C 1009.4 hPa North 31.5 km/h 18.5 km/h 15 % 0 mm
16:34 35.3 °C 4.8 °C 1009.4 hPa North 14.8 km/h 8.5 km/h 15 % 0 mm
16:39 35.7 °C 5.1 °C 1009.4 hPa NNW 20.4 km/h 18.8 km/h 15 % 0 mm
16:44 35.9 °C 5.2 °C 1009.4 hPa NNW 11.1 km/h 6.1 km/h 15 % 0 mm
16:49 35.9 °C 5.2 °C 1009.4 hPa North 24.1 km/h 10.5 km/h 15 % 0 mm
16:54 35.7 °C 4.1 °C 1009.4 hPa NW 31.5 km/h 9.7 km/h 14 % 0 mm
16:59 35.2 °C 3.7 °C 1009.4 hPa NNW 20.9 km/h 15.3 km/h 14 % 0 mm
17:04 35.2 °C 4.7 °C 1009.4 hPa NNE 14.8 km/h 13.4 km/h 15 % 0 mm
17:09 35.4 °C 3.8 °C 1009.4 hPa North 24.1 km/h 18.8 km/h 14 % 0 mm
17:14 35.5 °C 3.9 °C 1009 hPa North 20.4 km/h 9 km/h 14 % 0 mm
17:19 35.7 °C 4.1 °C 1009 hPa NNW 24.1 km/h 14.5 km/h 14 % 0 mm
17:24 35.8 °C 4.2 °C 1009 hPa NNW 18.5 km/h 11.6 km/h 14 % 0 mm
17:29 35.7 °C 4.1 °C 1009 hPa NNE 16.7 km/h 10.3 km/h 14 % 0 mm
17:34 35.8 °C 4.2 °C 1009 hPa North 18.5 km/h 11.7 km/h 14 % 0 mm
17:39 35.9 °C 4.3 °C 1009 hPa NW 17.7 km/h 16.7 km/h 14 % 0 mm
17:44 35.9 °C 4.3 °C 1009 hPa North 29.6 km/h 13.8 km/h 14 % 0 mm
17:49 35.7 °C 4.1 °C 1009 hPa North 16.7 km/h 12.9 km/h 14 % 0 mm
17:54 35.4 °C 3.9 °C 1008.7 hPa North 24.1 km/h 10.9 km/h 14 % 0 mm
17:59 35.3 °C 3.7 °C 1008.7 hPa NW 16.7 km/h 14.2 km/h 14 % 0 mm
18:04 35.2 °C 3.7 °C 1008.7 hPa NNW 14.8 km/h 7.2 km/h 14 % 0 mm
18:09 35.5 °C 3.9 °C 1008.7 hPa NNW 16.7 km/h 11.4 km/h 14 % 0 mm
18:14 35.4 °C 2.8 °C 1008.7 hPa NW 25.9 km/h 11.3 km/h 13 % 0 mm
18:19 35.1 °C 3.6 °C 1008.7 hPa NNW 18.5 km/h 11.6 km/h 14 % 0 mm
18:24 34.9 °C 3.5 °C 1008.7 hPa NNW 25.9 km/h 19.6 km/h 14 % 0 mm
18:29 34.8 °C 3.3 °C 1008.7 hPa NW 16.7 km/h 9.2 km/h 14 % 0 mm
18:34 34.7 °C 3.3 °C 1009 hPa NNW 13 km/h 11.1 km/h 14 % 0 mm
18:39 34.7 °C 3.3 °C 1009 hPa NNW 11.1 km/h 8 km/h 14 % 0 mm
18:44 34.7 °C 3.3 °C 1009 hPa North 17.7 km/h 10.9 km/h 14 % 0 mm
18:49 34.7 °C 4.3 °C 1009 hPa North 11.1 km/h 8.4 km/h 15 % 0 mm
18:54 34.7 °C 3.3 °C 1009 hPa North 11.1 km/h 5.1 km/h 14 % 0 mm
18:59 34.7 °C 3.3 °C 1009 hPa NW 20.9 km/h 15 km/h 14 % 0 mm
19:04 34.7 °C 3.3 °C 1009 hPa NNW 14.8 km/h 6.4 km/h 14 % 0 mm
19:09 34.7 °C 3.3 °C 1009 hPa NNW 9.7 km/h 8.5 km/h 14 % 0 mm
19:14 34.7 °C 4.2 °C 1009 hPa North 16.7 km/h 7.2 km/h 15 % 0 mm
19:19 34.7 °C 4.2 °C 1009 hPa North 8 km/h 4.5 km/h 15 % 0 mm
19:24 34.7 °C 3.3 °C 1009 hPa North 18.5 km/h 8.5 km/h 14 % 0 mm
19:29 34.7 °C 3.3 °C 1009.4 hPa NNW 18.5 km/h 10.5 km/h 14 % 0 mm
19:34 34.7 °C 4.2 °C 1009.4 hPa NNW 13 km/h 7.6 km/h 15 % 0 mm
19:39 34.8 °C 3.3 °C 1009.4 hPa NNW 11.1 km/h 7.6 km/h 14 % 0 mm
19:44 34.8 °C 4.3 °C 1009.4 hPa North 7.4 km/h 5.6 km/h 15 % 0 mm
19:49 34.7 °C 3.3 °C 1009.4 hPa NNW 13 km/h 7.2 km/h 14 % 0 mm
19:54 34.7 °C 3.3 °C 1009.4 hPa North 14.5 km/h 10 km/h 14 % 0 mm
19:59 34.5 °C 3.1 °C 1009.4 hPa NNW 11.1 km/h 5.6 km/h 14 % 0 mm
20:04 34.3 °C 4 °C 1009.4 hPa NNW 8 km/h 5.8 km/h 15 % 0 mm
20:09 34.2 °C 3.9 °C 1009.4 hPa NNW 8 km/h 5.6 km/h 15 % 0 mm
20:14 34.1 °C 3.8 °C 1009.4 hPa NNW 11.1 km/h 5.5 km/h 15 % 0 mm
20:19 33.8 °C 4.4 °C 1009.4 hPa NNW 5.6 km/h 3.9 km/h 16 % 0 mm
20:24 33.5 °C 4.2 °C 1009.4 hPa NNW 3.7 km/h 2.4 km/h 16 % 0 mm
20:29 33.2 °C 4.8 °C 1009.4 hPa NNW 5.6 km/h 2.9 km/h 17 % 0 mm
20:34 32.7 °C 4.5 °C 1009.4 hPa NNW 5.6 km/h 4 km/h 17 % 0 mm
20:39 32.3 °C 5.8 °C 1009.4 hPa NNW 3.7 km/h 1.6 km/h 19 % 0 mm
20:44 31.7 °C 4.5 °C 1009.4 hPa Calm   0.3 km/h 18 % 0 mm
20:49 31.3 °C 5.6 °C 1009.4 hPa Calm     20 % 0 mm
20:54 30.4 °C 5.7 °C 1009.4 hPa NNW 1.6 km/h   21 % 0 mm
20:59 29.7 °C 6.3 °C 1009.4 hPa Calm     23 % 0 mm
21:04 28.9 °C 6.3 °C 1009.4 hPa Calm     24 % 0 mm
21:09 28.2 °C 7.4 °C 1009.4 hPa NNW 3.7 km/h 3.2 km/h 27 % 0 mm
21:14 27.6 °C 6.9 °C 1009.4 hPa North 3.7 km/h 2.4 km/h 27 % 0 mm
21:19 27.3 °C 6.6 °C 1009.4 hPa Calm     27 % 0 mm
21:24 26.8 °C 7.3 °C 1009.4 hPa NNW 1.9 km/h 1.4 km/h 29 % 0 mm
21:29 26.3 °C 7.8 °C 1009.7 hPa NNW 3.7 km/h 2.1 km/h 31 % 0 mm
21:34 26 °C 7.6 °C 1009.7 hPa Calm     31 % 0 mm
21:39 25.8 °C 7.4 °C 1009.7 hPa Calm     31 % 0 mm
21:44 25.6 °C 7.2 °C 1009.7 hPa Calm     31 % 0 mm
21:49 25.5 °C 7.1 °C 1009.7 hPa Calm     31 % 0 mm
21:54 25.4 °C 7.5 °C 1009.7 hPa Calm     32 % 0 mm
21:59 25.2 °C 7.7 °C 1009.7 hPa Calm     33 % 0 mm
22:04 24.8 °C 7.9 °C 1009.7 hPa Calm     34 % 0 mm
22:09 24.6 °C 7.7 °C 1009.7 hPa Calm     34 % 0 mm
22:14 24.3 °C 7.9 °C 1009.7 hPa Calm     35 % 0 mm
22:19 24.1 °C 8.1 °C 1009.7 hPa Calm     36 % 0 mm
22:24 24 °C 8.4 °C 1009.7 hPa Calm     37 % 0 mm
22:29 23.8 °C 8.3 °C 1009.7 hPa Calm     37 % 0 mm
22:34 23.7 °C 8.6 °C 1009.7 hPa Calm     38 % 0 mm
22:39 23.4 °C 8.3 °C 1009.7 hPa Calm     38 % 0 mm
22:44 23.2 °C 8.4 °C 1009.7 hPa Calm     39 % 0 mm
22:49 22.9 °C 8.2 °C 1009.7 hPa Calm     39 % 0 mm
22:54 22.7 °C 9.2 °C 1010 hPa Calm     42 % 0 mm
22:59 22.4 °C 9.2 °C 1010 hPa NNW 5.6 km/h 2.6 km/h 43 % 0 mm
23:04 22.2 °C 8.3 °C 1010 hPa NNW 3.7 km/h 2.4 km/h 41 % 0 mm
23:09 22.1 °C 7.8 °C 1010 hPa NNW 1.9 km/h 0.2 km/h 40 % 0 mm
23:14 21.9 °C 7.7 °C 1010 hPa Calm     40 % 0 mm
23:19 21.8 °C 7.6 °C 1010 hPa Calm     40 % 0 mm
23:24 21.7 °C 8.6 °C 1010 hPa North 3.7 km/h 2.1 km/h 43 % 0 mm
23:29 21.4 °C 8.3 °C 1010 hPa NNW 1.9 km/h   43 % 0 mm
23:34 21.3 °C 8.2 °C 1010 hPa Calm     43 % 0 mm
23:39 21.1 °C 8 °C 1010 hPa NNW 3.7 km/h 1.1 km/h 43 % 0 mm
23:44 21.2 °C 7.8 °C 1010 hPa Calm     42 % 0 mm
23:49 21.4 °C 7.9 °C 1010 hPa Calm     42 % 0 mm
23:54 21.4 °C 7.6 °C 1010 hPa Calm     41 % 0 mm
23:59 21.4 °C 8.3 °C 1010 hPa Calm     43 % 0 mm
Ararat Weather
Compliments of Weather Underground - 2.25 mb
Click here to send mail.


ABOUT

Live weather data from Ararat, Victoria, Australia, 3377
Data uploaded from Cumulus every 5 minutes to Weather Underground.
This site then downloads the raw data for formatting and display.
Metric and imperial data can be displayed. Graphs and historical data available.
Includes Sun and Moon times and rain image live from BOM.

Check out Ararat Weather on Facebook, Twitter and Google +

Help support ongoing costs by checking out the ads





Follow @AraratWeather